createdAt,value
2022-11-06T00:01:15.549Z,91585.50
2022-11-06T00:03:47.990Z,91578.28
2022-11-06T00:06:38.335Z,91577.22
2022-11-06T00:09:12.353Z,91585.25
2022-11-06T00:11:44.733Z,91587.59
2022-11-06T00:14:18.048Z,91580.09
2022-11-06T00:16:50.405Z,91585.31
2022-11-06T00:19:22.766Z,91581.97
2022-11-06T00:21:55.117Z,91572.75
2022-11-06T00:24:27.513Z,91575.19
2022-11-06T00:26:59.924Z,91575.19
2022-11-06T00:29:32.949Z,91577.47
2022-11-06T00:32:05.309Z,91565.69
2022-11-06T00:34:37.635Z,91573.66
2022-11-06T00:37:10.262Z,91574.59
2022-11-06T00:39:42.614Z,91571.88
2022-11-06T00:42:14.994Z,91566.53
2022-11-06T00:44:48.470Z,91571.16
2022-11-06T00:47:20.863Z,91569.34
2022-11-06T00:49:53.265Z,91573.94
2022-11-06T00:52:25.623Z,91568.75
2022-11-06T00:54:57.972Z,91567.38
2022-11-06T00:57:30.349Z,91561.84
2022-11-06T01:00:04.292Z,91566.44
2022-11-06T01:02:37.876Z,91553.69
2022-11-06T01:05:10.350Z,91548.94
2022-11-06T01:07:42.794Z,91550.03
2022-11-06T01:10:15.174Z,91550.97
2022-11-06T01:12:47.537Z,91567.53
2022-11-06T01:15:20.555Z,91563.22
2022-11-06T01:17:52.924Z,91550.66
2022-11-06T01:20:25.639Z,91548.19
2022-11-06T01:22:58.028Z,91548.34
2022-11-06T01:25:30.472Z,91540.06
2022-11-06T01:28:02.972Z,91536.22
2022-11-06T01:30:37.210Z,91519.97
2022-11-06T01:33:09.564Z,91534.56
2022-11-06T01:35:44.908Z,91528.59
2022-11-06T01:38:17.997Z,91532.44
2022-11-06T01:40:50.512Z,91534.91
2022-11-06T01:43:24.963Z,91523.84
2022-11-06T01:45:58.085Z,91537.81
2022-11-06T01:48:30.574Z,91534.72
2022-11-06T01:51:03.165Z,91535.34
2022-11-06T01:53:37.085Z,91527.06
2022-11-06T01:56:12.062Z,91531.34
2022-11-06T01:58:47.340Z,91535.78
2022-11-06T02:01:20.554Z,91538.06
2022-11-06T02:03:57.595Z,91538.66
2022-11-06T02:06:31.181Z,91536.34
2022-11-06T02:09:10.521Z,91536.94
2022-11-06T02:11:45.060Z,91542.16
2022-11-06T02:14:28.284Z,91536.78
2022-11-06T02:17:09.042Z,91538.66
2022-11-06T02:19:54.161Z,91536.81
2022-11-06T02:22:39.837Z,91540.66
2022-11-06T02:25:19.525Z,91538.06
2022-11-06T02:28:02.461Z,91540.94
2022-11-06T02:30:41.293Z,91531.91
2022-11-06T02:33:16.588Z,91534.84
2022-11-06T02:35:52.897Z,91541.09
2022-11-06T02:38:30.456Z,91544.19
2022-11-06T02:41:06.655Z,91546.47
2022-11-06T02:43:44.147Z,91542.81
2022-11-06T02:46:20.454Z,91546.47
2022-11-06T02:48:58.668Z,91547.34
2022-11-06T02:51:36.048Z,91547.19
2022-11-06T02:54:10.433Z,91545.66
2022-11-06T02:56:45.764Z,91553.28
2022-11-06T02:59:21.813Z,91545.94
2022-11-06T03:01:58.548Z,91556.19
2022-11-06T03:04:37.395Z,91562.31
2022-11-06T03:07:15.707Z,91562.31
2022-11-06T03:09:49.206Z,91565.97
2022-11-06T03:12:27.522Z,91563.09
2022-11-06T03:15:10.998Z,91569.06
2022-11-06T03:17:50.222Z,91574.56
2022-11-06T03:20:29.468Z,91566.00
2022-11-06T03:23:10.621Z,91569.97
2022-11-06T03:25:50.834Z,91567.22
2022-11-06T03:28:29.414Z,91576.03
2022-11-06T03:31:06.383Z,91574.19
2022-11-06T03:33:44.113Z,91577.06
2022-11-06T03:36:22.975Z,91573.38
2022-11-06T03:39:04.082Z,91575.66
2022-11-06T03:41:42.081Z,91575.72
2022-11-06T03:44:17.773Z,91574.97
2022-11-06T03:46:59.864Z,91576.00
2022-11-06T03:49:37.171Z,91582.91
2022-11-06T03:52:13.278Z,91585.78
2022-11-06T03:54:54.380Z,91587.31
2022-11-06T03:57:33.770Z,91580.91
2022-11-06T04:00:08.402Z,91582.13
2022-11-06T04:02:52.537Z,91588.09
2022-11-06T04:05:25.084Z,91584.25
2022-11-06T04:08:16.214Z,91592.22
2022-11-06T04:11:10.364Z,91586.47
2022-11-06T04:14:01.271Z,91587.31
2022-11-06T04:16:36.316Z,91587.66
2022-11-06T04:19:15.536Z,91591.63
2022-11-06T04:22:18.028Z,91586.03
2022-11-06T04:25:21.675Z,91588.25
2022-11-06T04:28:06.368Z,91591.63
2022-11-06T04:30:45.602Z,91579.44
2022-11-06T04:33:25.512Z,91590.47
2022-11-06T04:36:06.739Z,91592.63
2022-11-06T04:38:46.943Z,91593.84
2022-11-06T04:41:33.588Z,91588.06
2022-11-06T04:44:09.951Z,91588.34
2022-11-06T04:46:46.942Z,91583.56
2022-11-06T04:49:21.354Z,91588.47
2022-11-06T04:51:55.113Z,91586.63
2022-11-06T04:54:27.854Z,91594.44
2022-11-06T04:57:01.264Z,91604.63
2022-11-06T04:59:36.157Z,91601.34
2022-11-06T05:02:08.695Z,91609.28
2022-11-06T05:04:41.120Z,91610.53
2022-11-06T05:07:14.440Z,91606.19
2022-11-06T05:09:46.777Z,91606.09
2022-11-06T05:12:19.162Z,91615.59
2022-11-06T05:14:51.530Z,91611.47
2022-11-06T05:17:23.808Z,91617.25
2022-11-06T05:19:56.172Z,91617.16
2022-11-06T05:22:47.424Z,91621.28
2022-11-06T05:25:19.772Z,91623.34
2022-11-06T05:27:52.085Z,91618.25
2022-11-06T05:30:24.966Z,91623.22
2022-11-06T05:32:57.288Z,91623.78
2022-11-06T05:35:29.645Z,91629.28
2022-11-06T05:38:03.202Z,91625.78
2022-11-06T05:40:35.516Z,91623.00
2022-11-06T05:43:07.912Z,91615.91
2022-11-06T05:45:40.238Z,91610.78
2022-11-06T05:48:12.777Z,91620.72
2022-11-06T05:50:45.328Z,91618.34
2022-11-06T05:53:21.506Z,91617.34
2022-11-06T05:55:53.902Z,91617.22
2022-11-06T05:58:26.615Z,91628.03
2022-11-06T06:00:59.101Z,91631.47
2022-11-06T06:03:31.785Z,91632.41
2022-11-06T06:06:04.868Z,91637.53
2022-11-06T06:08:38.455Z,91636.81
2022-11-06T06:11:10.822Z,91636.06
2022-11-06T06:13:43.543Z,91628.63
2022-11-06T06:16:15.918Z,91626.88
2022-11-06T06:18:49.633Z,91627.25
2022-11-06T06:21:22.043Z,91636.63
2022-11-06T06:23:55.117Z,91642.00
2022-11-06T06:26:27.658Z,91643.66
2022-11-06T06:29:01.444Z,91645.13
2022-11-06T06:31:33.847Z,91649.88
2022-11-06T06:34:06.238Z,91652.91
2022-11-06T06:36:38.605Z,91669.94
2022-11-06T06:39:11.650Z,91669.34
2022-11-06T06:41:43.962Z,91675.50
2022-11-06T06:44:16.553Z,91666.34
2022-11-06T06:46:48.992Z,91675.25
2022-11-06T06:49:21.333Z,91671.28
2022-11-06T06:51:54.546Z,91670.06
2022-11-06T06:54:27.609Z,91678.66
2022-11-06T06:56:59.954Z,91695.13
2022-11-06T06:59:32.365Z,91688.97
2022-11-06T07:02:04.862Z,91676.47
2022-11-06T07:04:37.461Z,91672.78
2022-11-06T07:07:09.805Z,91678.44
2022-11-06T07:09:42.802Z,91668.94
2022-11-06T07:12:15.165Z,91670.63
2022-11-06T07:14:47.515Z,91685.34
2022-11-06T07:17:19.854Z,91676.16
2022-11-06T07:19:52.225Z,91685.84
2022-11-06T07:22:32.364Z,91695.22
2022-11-06T07:25:10.076Z,91693.66
2022-11-06T07:27:42.423Z,91698.41
2022-11-06T07:30:14.897Z,91694.28
2022-11-06T07:32:47.287Z,91698.72
2022-11-06T07:35:19.628Z,91709.22
2022-11-06T07:37:51.933Z,91708.94
2022-11-06T07:40:24.925Z,91714.94
2022-11-06T07:43:03.570Z,91714.31
2022-11-06T07:45:36.819Z,91711.41
2022-11-06T07:48:09.202Z,91711.75
2022-11-06T07:50:41.593Z,91718.97
2022-11-06T07:53:14.124Z,91713.56
2022-11-06T07:55:50.960Z,91712.81
2022-11-06T07:58:24.350Z,91715.28
2022-11-06T08:00:58.378Z,91707.13
2022-11-06T08:03:31.305Z,91723.72
2022-11-06T08:06:04.616Z,91717.59
2022-11-06T08:08:36.970Z,91719.44
2022-11-06T08:11:11.413Z,91723.59
2022-11-06T08:13:43.842Z,91734.03
2022-11-06T08:16:16.179Z,91739.22
2022-11-06T08:18:48.502Z,91742.75
2022-11-06T08:21:20.815Z,91747.31
2022-11-06T08:23:53.169Z,91752.53
2022-11-06T08:26:26.861Z,91750.06
2022-11-06T08:28:59.314Z,91763.47
2022-11-06T08:31:31.718Z,91774.97
2022-11-06T08:34:04.092Z,91777.75
2022-11-06T08:36:38.668Z,91784.22
2022-11-06T08:39:11.080Z,91777.00
2022-11-06T08:41:44.701Z,91765.19
2022-11-06T08:44:17.257Z,91789.91
2022-11-06T08:46:52.165Z,91789.25
2022-11-06T08:49:24.759Z,91801.75
2022-11-06T08:51:57.116Z,91805.59
2022-11-06T08:54:29.575Z,91814.50
2022-11-06T08:57:03.348Z,91816.63
2022-11-06T08:59:35.746Z,91827.88
2022-11-06T09:02:12.205Z,91840.63
2022-11-06T09:04:44.644Z,91834.63
2022-11-06T09:07:17.228Z,91834.59
2022-11-06T09:09:49.614Z,91829.81
2022-11-06T09:12:22.647Z,91829.19
2022-11-06T09:14:55.048Z,91836.41
2022-11-06T09:17:27.559Z,91816.41
2022-11-06T09:19:59.914Z,91819.00
2022-11-06T09:22:32.304Z,91811.09
2022-11-06T09:25:05.845Z,91805.09
2022-11-06T09:27:43.813Z,91821.81
2022-11-06T09:30:17.797Z,91832.63
2022-11-06T09:32:51.619Z,91817.00
2022-11-06T09:35:25.301Z,91822.81
2022-11-06T09:38:01.246Z,91831.91
2022-11-06T09:40:35.991Z,91834.66
2022-11-06T09:43:50.201Z,91841.88
2022-11-06T09:46:22.205Z,91836.81
2022-11-06T09:48:58.515Z,91832.31
2022-11-06T09:51:39.781Z,91829.09
2022-11-06T09:54:17.369Z,91829.38
2022-11-06T09:56:55.330Z,91831.69
2022-11-06T09:59:30.915Z,91822.56
2022-11-06T10:02:18.817Z,91824.56
2022-11-06T10:04:59.041Z,91824.38
2022-11-06T10:07:34.838Z,91826.97
2022-11-06T10:10:14.440Z,91830.09
2022-11-06T10:13:08.636Z,91832.53
2022-11-06T10:15:48.889Z,91827.88
2022-11-06T10:18:30.797Z,91836.66
2022-11-06T10:21:11.011Z,91834.19
2022-11-06T10:23:47.901Z,91832.19
2022-11-06T10:26:28.648Z,91833.09
2022-11-06T10:29:23.317Z,91836.97
2022-11-06T10:32:27.753Z,91834.19
2022-11-06T10:35:03.647Z,91833.84
2022-11-06T10:37:42.554Z,91840.00
2022-11-06T10:40:18.306Z,91830.78
2022-11-06T10:43:00.213Z,91833.81
2022-11-06T10:45:35.086Z,91839.38
2022-11-06T10:48:26.002Z,91833.03
2022-11-06T10:51:27.363Z,91836.19
2022-11-06T10:54:13.221Z,91822.97
2022-11-06T10:57:01.590Z,91847.09
2022-11-06T10:59:34.163Z,91835.50
2022-11-06T11:02:22.285Z,91830.84
2022-11-06T11:04:58.152Z,91837.91
2022-11-06T11:07:33.861Z,91835.66
2022-11-06T11:10:25.204Z,91837.03
2022-11-06T11:13:04.077Z,91837.63
2022-11-06T11:15:46.423Z,91838.63
2022-11-06T11:18:22.829Z,91835.69
2022-11-06T11:21:06.348Z,91833.19
2022-11-06T11:23:38.967Z,91824.31
2022-11-06T11:26:22.065Z,91825.03
2022-11-06T11:28:56.527Z,91823.31
2022-11-06T11:31:31.525Z,91828.19
2022-11-06T11:34:14.474Z,91824.06
2022-11-06T11:36:57.432Z,91824.50
2022-11-06T11:39:32.424Z,91824.50
2022-11-06T11:42:32.129Z,91814.59
2022-11-06T11:45:15.179Z,91815.47
2022-11-06T11:47:49.263Z,91812.09
2022-11-06T11:50:30.883Z,91824.41
2022-11-06T11:53:10.827Z,91819.91
2022-11-06T11:55:45.836Z,91815.91
2022-11-06T11:58:22.456Z,91818.63
2022-11-06T12:00:57.868Z,91819.59
2022-11-06T12:03:34.415Z,91809.09
2022-11-06T12:06:10.046Z,91799.81
2022-11-06T12:08:48.688Z,91811.25
2022-11-06T12:11:24.274Z,91809.56
2022-11-06T12:14:39.381Z,91806.50
2022-11-06T12:17:17.681Z,91814.03
2022-11-06T12:19:54.235Z,91813.03
2022-11-06T12:22:32.357Z,91811.94
2022-11-06T12:25:12.582Z,91822.47
2022-11-06T12:27:50.971Z,91819.06
2022-11-06T12:30:23.525Z,91823.09
2022-11-06T12:33:05.882Z,91821.00
2022-11-06T12:35:41.976Z,91808.63
2022-11-06T12:38:21.302Z,91823.53
2022-11-06T12:41:00.788Z,91821.69
2022-11-06T12:43:40.138Z,91820.69
2022-11-06T12:46:38.254Z,91819.09
2022-11-06T12:49:56.131Z,91818.09
2022-11-06T12:52:42.204Z,91810.88
2022-11-06T12:55:22.805Z,91818.97
2022-11-06T12:58:09.499Z,91820.66
2022-11-06T13:00:54.589Z,91833.28
2022-11-06T13:03:52.145Z,91826.47
2022-11-06T13:06:36.345Z,91826.34
2022-11-06T13:09:15.925Z,91833.97
2022-11-06T13:11:55.146Z,91839.44
2022-11-06T13:14:32.182Z,91848.03
2022-11-06T13:17:12.825Z,91842.09
2022-11-06T13:19:53.661Z,91837.03
2022-11-06T13:22:29.890Z,91844.94
2022-11-06T13:25:10.647Z,91848.94
2022-11-06T13:27:51.360Z,91852.00
2022-11-06T13:30:26.133Z,91841.03
2022-11-06T13:33:05.936Z,91849.94
2022-11-06T13:35:41.748Z,91844.53
2022-11-06T13:38:20.665Z,91851.91
2022-11-06T13:41:02.193Z,91845.78
2022-11-06T13:43:40.912Z,91858.59
2022-11-06T13:46:25.013Z,91859.25
2022-11-06T13:49:08.269Z,91852.03
2022-11-06T13:51:50.480Z,91861.88
2022-11-06T13:54:32.286Z,91856.47
2022-11-06T13:57:35.953Z,91864.22
2022-11-06T14:00:17.626Z,91858.22
2022-11-06T14:03:39.142Z,91850.66
2022-11-06T14:06:17.645Z,91864.09
2022-11-06T14:08:53.139Z,91865.94
2022-11-06T14:11:28.854Z,91866.09
2022-11-06T14:14:03.377Z,91873.78
2022-11-06T14:16:37.509Z,91870.22
2022-11-06T14:19:14.205Z,91872.88
2022-11-06T14:21:49.344Z,91865.38
2022-11-06T14:24:39.841Z,91871.53
2022-11-06T14:27:33.096Z,91877.34
2022-11-06T14:31:11.030Z,91877.66
2022-11-06T14:33:58.501Z,91878.09
2022-11-06T14:36:36.090Z,91874.75
2022-11-06T14:39:13.312Z,91881.19
2022-11-06T14:41:57.938Z,91879.81
2022-11-06T14:44:43.018Z,91876.72
2022-11-06T14:47:30.714Z,91876.75
2022-11-06T14:50:08.177Z,91875.25
2022-11-06T14:52:45.405Z,91889.53
2022-11-06T14:55:28.271Z,91889.53
2022-11-06T14:58:14.359Z,91894.91
2022-11-06T15:00:51.922Z,91891.38
2022-11-06T15:03:30.854Z,91900.78
2022-11-06T15:06:19.728Z,91895.53
2022-11-06T15:08:58.542Z,91898.44
2022-11-06T15:12:08.500Z,91894.75
2022-11-06T15:14:55.039Z,91901.50
2022-11-06T15:17:31.972Z,91901.66
2022-11-06T15:20:21.263Z,91905.84
2022-11-06T15:23:18.017Z,91892.44
2022-11-06T15:26:00.572Z,91902.44
2022-11-06T15:28:41.370Z,91906.16
2022-11-06T15:31:16.681Z,91920.13
2022-11-06T15:33:59.045Z,91918.94
2022-11-06T15:36:38.424Z,91924.78
2022-11-06T15:39:31.588Z,91923.41
2022-11-06T15:42:07.782Z,91923.25
2022-11-06T15:44:41.972Z,91913.69
2022-11-06T15:47:21.761Z,91923.25
2022-11-06T15:50:06.346Z,91924.50
2022-11-06T15:52:40.484Z,91930.78
2022-11-06T15:55:13.457Z,91926.16
2022-11-06T15:57:45.804Z,91928.16
2022-11-06T16:00:20.261Z,91931.69
2022-11-06T16:02:58.866Z,91943.22
2022-11-06T16:05:34.097Z,91939.69
2022-11-06T16:08:07.551Z,91944.00
2022-11-06T16:10:41.013Z,91946.28
2022-11-06T16:13:16.487Z,91942.13
2022-11-06T16:15:54.576Z,91946.78
2022-11-06T16:18:29.562Z,91957.06
2022-11-06T16:21:11.388Z,91963.38
2022-11-06T16:23:49.395Z,91963.84
2022-11-06T16:26:26.481Z,91964.59
2022-11-06T16:29:00.372Z,91964.31
2022-11-06T16:31:33.252Z,91970.91
2022-11-06T16:34:07.875Z,91972.59
2022-11-06T16:36:52.660Z,91965.50
2022-11-06T16:39:50.576Z,91984.28
2022-11-06T16:42:26.264Z,91986.72
2022-11-06T16:45:08.357Z,91988.56
2022-11-06T16:47:40.717Z,91984.88
2022-11-06T16:50:42.619Z,91990.25
2022-11-06T16:53:19.444Z,91989.00
2022-11-06T16:55:58.038Z,91988.53
2022-11-06T16:58:34.064Z,92000.53
2022-11-06T17:01:06.861Z,91999.28
2022-11-06T17:03:45.661Z,91998.66
2022-11-06T17:06:21.995Z,92012.94
2022-11-06T17:09:09.434Z,92000.59
2022-11-06T17:11:43.062Z,92006.91
2022-11-06T17:14:18.918Z,92005.53
2022-11-06T17:16:53.142Z,92028.09
2022-11-06T17:19:26.741Z,92019.16
2022-11-06T17:21:59.065Z,92029.88
2022-11-06T17:24:36.383Z,92030.47
2022-11-06T17:27:10.312Z,92033.06
2022-11-06T17:29:42.791Z,92036.34
2022-11-06T17:32:15.140Z,92048.44
2022-11-06T17:34:47.465Z,92033.69
2022-11-06T17:37:21.353Z,92029.91
2022-11-06T17:39:53.751Z,92034.22
2022-11-06T17:42:26.830Z,92029.91
2022-11-06T17:44:59.157Z,92024.97
2022-11-06T17:47:31.573Z,92032.88
2022-11-06T17:50:04.424Z,92035.50
2022-11-06T17:52:36.765Z,92027.44
2022-11-06T17:55:09.129Z,92030.69
2022-11-06T17:57:42.606Z,92031.47
2022-11-06T18:00:15.255Z,92022.84
2022-11-06T18:03:01.034Z,92038.09
2022-11-06T18:05:35.261Z,92031.06
2022-11-06T18:08:12.119Z,92030.00
2022-11-06T18:10:44.699Z,92044.16
2022-11-06T18:13:17.773Z,92039.69
2022-11-06T18:15:51.810Z,92048.47
2022-11-06T18:18:24.208Z,92036.03
2022-11-06T18:20:56.886Z,92042.13
2022-11-06T18:23:29.251Z,92040.78
2022-11-06T18:26:01.732Z,92036.34
2022-11-06T18:28:34.799Z,92039.53
2022-11-06T18:31:07.205Z,92047.06
2022-11-06T18:33:39.609Z,92043.50
2022-11-06T18:36:13.486Z,92049.50
2022-11-06T18:38:46.111Z,92051.94
2022-11-06T18:41:20.693Z,92047.13
2022-11-06T18:43:56.750Z,92041.25
2022-11-06T18:46:29.580Z,92028.13
2022-11-06T18:49:02.052Z,92047.63
2022-11-06T18:51:36.194Z,92041.06
2022-11-06T18:54:10.907Z,92038.66
2022-11-06T18:56:43.281Z,92035.88
2022-11-06T18:59:18.870Z,92028.97
2022-11-06T19:01:51.366Z,92035.16
2022-11-06T19:04:25.831Z,92022.16
2022-11-06T19:06:58.244Z,92038.69
2022-11-06T19:09:30.652Z,92038.13
2022-11-06T19:12:03.079Z,92043.41
2022-11-06T19:14:36.215Z,92047.13
2022-11-06T19:17:08.584Z,92045.56
2022-11-06T19:19:41.043Z,92048.53
2022-11-06T19:22:13.409Z,92049.78
2022-11-06T19:24:46.005Z,92052.88
2022-11-06T19:27:18.366Z,92043.94
2022-11-06T19:29:52.080Z,92059.81
2022-11-06T19:32:24.579Z,92056.06
2022-11-06T19:34:57.010Z,92071.03
2022-11-06T19:37:31.572Z,92072.38
2022-11-06T19:40:06.285Z,92066.66
2022-11-06T19:42:38.964Z,92065.41
2022-11-06T19:45:12.113Z,92076.16
2022-11-06T19:47:44.457Z,92070.56
2022-11-06T19:50:25.018Z,92069.69
2022-11-06T19:53:05.705Z,92064.69
2022-11-06T19:55:38.811Z,92071.53
2022-11-06T19:58:11.251Z,92072.91
2022-11-06T20:00:44.676Z,92076.94
2022-11-06T20:03:17.334Z,92083.91
2022-11-06T20:05:51.726Z,92091.91
2022-11-06T20:08:24.080Z,92096.13
2022-11-06T20:11:02.530Z,92092.75
2022-11-06T20:13:35.893Z,92100.88
2022-11-06T20:16:11.437Z,92095.28
2022-11-06T20:18:44.207Z,92091.81
2022-11-06T20:21:16.607Z,92086.91
2022-11-06T20:23:49.312Z,92093.56
2022-11-06T20:26:22.305Z,92100.63
2022-11-06T20:28:54.658Z,92094.69
2022-11-06T20:31:27.946Z,92099.72
2022-11-06T20:34:00.546Z,92097.41
2022-11-06T20:36:34.866Z,92111.13
2022-11-06T20:39:08.467Z,92102.06
2022-11-06T20:41:41.024Z,92115.47
2022-11-06T20:44:13.413Z,92117.09
2022-11-06T20:46:47.992Z,92120.78
2022-11-06T20:49:20.536Z,92121.09
2022-11-06T20:52:13.243Z,92125.41
2022-11-06T20:54:47.565Z,92130.91
2022-11-06T20:57:20.079Z,92132.69
2022-11-06T20:59:52.498Z,92139.41
2022-11-06T21:02:25.868Z,92137.88
2022-11-06T21:04:58.313Z,92132.84
2022-11-06T21:07:30.661Z,92139.22
2022-11-06T21:10:03.353Z,92151.38
2022-11-06T21:12:35.773Z,92161.72
2022-11-06T21:15:08.573Z,92152.66
2022-11-06T21:17:42.346Z,92169.63
2022-11-06T21:20:16.947Z,92165.75
2022-11-06T21:22:52.741Z,92160.44
2022-11-06T21:25:25.112Z,92170.50
2022-11-06T21:27:57.566Z,92176.19
2022-11-06T21:30:29.940Z,92178.22
2022-11-06T21:33:02.952Z,92172.25
2022-11-06T21:35:35.814Z,92187.22
2022-11-06T21:38:08.467Z,92184.06
2022-11-06T21:40:40.866Z,92184.53
2022-11-06T21:43:13.575Z,92187.63
2022-11-06T21:45:46.165Z,92179.53
2022-11-06T21:48:32.846Z,92188.81
2022-11-06T21:51:13.596Z,92189.81
2022-11-06T21:54:04.212Z,92178.47
2022-11-06T21:56:37.797Z,92188.75
2022-11-06T21:59:12.298Z,92187.59
2022-11-06T22:01:44.830Z,92186.66
2022-11-06T22:04:18.005Z,92192.56
2022-11-06T22:06:51.603Z,92191.97
2022-11-06T22:09:26.022Z,92188.81
2022-11-06T22:11:59.219Z,92198.44
2022-11-06T22:14:31.684Z,92196.19
2022-11-06T22:17:04.045Z,92201.41
2022-11-06T22:19:37.121Z,92202.56
2022-11-06T22:22:09.470Z,92200.53
2022-11-06T22:24:41.857Z,92205.75
2022-11-06T22:27:14.221Z,92201.41
2022-11-06T22:29:46.584Z,92204.34
2022-11-06T22:32:18.930Z,92202.81
2022-11-06T22:34:52.132Z,92199.16
2022-11-06T22:37:24.506Z,92196.06
2022-11-06T22:39:56.874Z,92194.88
2022-11-06T22:42:29.247Z,92207.19
2022-11-06T22:45:01.786Z,92213.03
2022-11-06T22:47:34.161Z,92208.38
2022-11-06T22:50:08.217Z,92206.38
2022-11-06T22:52:40.519Z,92200.59
2022-11-06T22:55:12.873Z,92202.03
2022-11-06T22:57:45.202Z,92203.25
2022-11-06T23:00:21.681Z,92212.44
2022-11-06T23:02:54.110Z,92204.47
2022-11-06T23:05:27.337Z,92208.41
2022-11-06T23:07:59.652Z,92212.34
2022-11-06T23:10:34.194Z,92213.19
2022-11-06T23:13:06.541Z,92217.63
2022-11-06T23:15:38.928Z,92214.81
2022-11-06T23:18:11.422Z,92216.63
2022-11-06T23:20:44.565Z,92211.75
2022-11-06T23:23:17.157Z,92206.88
2022-11-06T23:25:49.645Z,92207.25
2022-11-06T23:28:22.009Z,92205.06
2022-11-06T23:30:54.381Z,92212.28
2022-11-06T23:33:26.717Z,92206.25
2022-11-06T23:36:03.852Z,92204.66
2022-11-06T23:38:36.313Z,92206.78
2022-11-06T23:41:24.787Z,92208.34
2022-11-06T23:43:58.256Z,92209.13
2022-11-06T23:46:32.397Z,92207.88
2022-11-06T23:49:04.765Z,92210.94
2022-11-06T23:51:37.811Z,92201.19
2022-11-06T23:54:10.228Z,92215.09
2022-11-06T23:56:42.623Z,92219.53
2022-11-06T23:59:15.125Z,92223.94
